Terminal Aerodrome Forecast
Issued by NWS Honolulu, HI

Home | Current Version | Previous Version | Text Only | Print | Product List | Glossary On
Versions: 1 2 3 4 5 6 7 8 9 10 11 12 13 14 15 16 17 18 19 20 21 22 23 24 25 26 27 28 29 30 31 32 33 34 35 36 37 38 39 40 41 42 43 44 45 46 47 48 49 50
000
FTPA31 PHFO 261501 AAA
TAFHNL
TAF AMD
PHNL 261501Z 2615/2718 05010KT P6SM SCT025 SCT060
     FM262000 05015G22KT P6SM FEW025 SCT060
     FM270500 05010G15KT P6SM SCT025 SCT060
     FM271200 05010KT P6SM SCT025 SCT060=

USA.gov is the U.S. government's official web portal to all federal, state and local government web resources and services.